sensor_id;sensor_type;location;lat;lon;timestamp;P1;durP1;ratioP1;P2;durP2;ratioP2
34459;SDS011;20704;51.260;22.558;2022-07-23T00:02:09;13.02;;;6.93;;
34459;SDS011;20704;51.260;22.558;2022-07-23T00:04:35;10.85;;;6.53;;
34459;SDS011;20704;51.260;22.558;2022-07-23T00:07:01;10.82;;;6.88;;
34459;SDS011;20704;51.260;22.558;2022-07-23T00:09:28;10.52;;;7.40;;
34459;SDS011;20704;51.260;22.558;2022-07-23T00:11:56;7.88;;;6.50;;
34459;SDS011;20704;51.260;22.558;2022-07-23T00:14:22;12.52;;;7.05;;
34459;SDS011;20704;51.260;22.558;2022-07-23T00:16:48;11.20;;;7.22;;
34459;SDS011;20704;51.260;22.558;2022-07-23T00:19:14;11.20;;;6.93;;
34459;SDS011;20704;51.260;22.558;2022-07-23T00:21:41;11.85;;;7.03;;
34459;SDS011;20704;51.260;22.558;2022-07-23T00:24:07;10.73;;;6.90;;
34459;SDS011;20704;51.260;22.558;2022-07-23T00:26:33;9.85;;;6.88;;
34459;SDS011;20704;51.260;22.558;2022-07-23T00:28:59;9.43;;;7.35;;
34459;SDS011;20704;51.260;22.558;2022-07-23T00:31:25;9.48;;;6.63;;
34459;SDS011;20704;51.260;22.558;2022-07-23T00:33:51;8.57;;;6.40;;
34459;SDS011;20704;51.260;22.558;2022-07-23T00:36:17;10.85;;;6.35;;
34459;SDS011;20704;51.260;22.558;2022-07-23T00:38:45;15.15;;;6.30;;
34459;SDS011;20704;51.260;22.558;2022-07-23T00:41:11;12.70;;;7.20;;
34459;SDS011;20704;51.260;22.558;2022-07-23T00:43:37;10.77;;;7.43;;
34459;SDS011;20704;51.260;22.558;2022-07-23T00:46:03;8.45;;;7.15;;
34459;SDS011;20704;51.260;22.558;2022-07-23T00:48:29;10.90;;;7.50;;
34459;SDS011;20704;51.260;22.558;2022-07-23T00:50:55;8.02;;;6.97;;
34459;SDS011;20704;51.260;22.558;2022-07-23T00:53:22;10.02;;;7.50;;
34459;SDS011;20704;51.260;22.558;2022-07-23T00:55:48;14.10;;;7.00;;
34459;SDS011;20704;51.260;22.558;2022-07-23T00:58:16;8.30;;;6.60;;
34459;SDS011;20704;51.260;22.558;2022-07-23T01:00:42;10.63;;;7.10;;
34459;SDS011;20704;51.260;22.558;2022-07-23T01:03:08;9.38;;;6.43;;
34459;SDS011;20704;51.260;22.558;2022-07-23T01:05:34;11.05;;;7.25;;
34459;SDS011;20704;51.260;22.558;2022-07-23T01:08:00;8.75;;;6.43;;
34459;SDS011;20704;51.260;22.558;2022-07-23T01:10:27;8.70;;;7.00;;
34459;SDS011;20704;51.260;22.558;2022-07-23T01:13:00;8.00;;;6.80;;
34459;SDS011;20704;51.260;22.558;2022-07-23T01:15:28;11.48;;;7.22;;
34459;SDS011;20704;51.260;22.558;2022-07-23T01:17:54;12.35;;;7.22;;
34459;SDS011;20704;51.260;22.558;2022-07-23T01:20:21;11.80;;;6.82;;
34459;SDS011;20704;51.260;22.558;2022-07-23T01:22:48;12.45;;;7.55;;
34459;SDS011;20704;51.260;22.558;2022-07-23T01:25:14;9.23;;;7.28;;
34459;SDS011;20704;51.260;22.558;2022-07-23T01:27:50;10.50;;;6.78;;
34459;SDS011;20704;51.260;22.558;2022-07-23T01:30:17;19.92;;;6.55;;
34459;SDS011;20704;51.260;22.558;2022-07-23T01:32:44;10.25;;;6.22;;
34459;SDS011;20704;51.260;22.558;2022-07-23T01:35:10;10.82;;;7.78;;
34459;SDS011;20704;51.260;22.558;2022-07-23T01:37:37;10.85;;;6.97;;
34459;SDS011;20704;51.260;22.558;2022-07-23T01:40:05;10.35;;;7.50;;
34459;SDS011;20704;51.260;22.558;2022-07-23T01:42:32;10.02;;;6.63;;
34459;SDS011;20704;51.260;22.558;2022-07-23T01:44:59;13.77;;;6.40;;
34459;SDS011;20704;51.260;22.558;2022-07-23T01:47:25;9.63;;;6.78;;
34459;SDS011;20704;51.260;22.558;2022-07-23T01:49:54;9.20;;;6.57;;
34459;SDS011;20704;51.260;22.558;2022-07-23T01:52:42;19.00;;;6.55;;
34459;SDS011;20704;51.260;22.558;2022-07-23T01:55:09;11.43;;;6.93;;
34459;SDS011;20704;51.260;22.558;2022-07-23T01:57:39;13.75;;;6.43;;
34459;SDS011;20704;51.260;22.558;2022-07-23T02:00:06;11.60;;;6.70;;
34459;SDS011;20704;51.260;22.558;2022-07-23T02:02:38;11.23;;;6.25;;
34459;SDS011;20704;51.260;22.558;2022-07-23T02:05:05;7.10;;;6.40;;
34459;SDS011;20704;51.260;22.558;2022-07-23T02:07:31;9.57;;;6.00;;
34459;SDS011;20704;51.260;22.558;2022-07-23T02:09:59;9.45;;;6.70;;
34459;SDS011;20704;51.260;22.558;2022-07-23T02:12:25;11.85;;;7.05;;
34459;SDS011;20704;51.260;22.558;2022-07-23T02:14:51;10.05;;;6.70;;
34459;SDS011;20704;51.260;22.558;2022-07-23T02:17:19;9.57;;;7.30;;
34459;SDS011;20704;51.260;22.558;2022-07-23T02:19:45;15.77;;;6.82;;
34459;SDS011;20704;51.260;22.558;2022-07-23T02:22:11;12.55;;;6.65;;
34459;SDS011;20704;51.260;22.558;2022-07-23T02:24:38;9.45;;;6.53;;
34459;SDS011;20704;51.260;22.558;2022-07-23T02:27:04;13.60;;;6.35;;
34459;SDS011;20704;51.260;22.558;2022-07-23T02:29:32;10.38;;;6.65;;
34459;SDS011;20704;51.260;22.558;2022-07-23T02:31:59;14.25;;;6.18;;
34459;SDS011;20704;51.260;22.558;2022-07-23T02:34:25;8.30;;;6.38;;
34459;SDS011;20704;51.260;22.558;2022-07-23T02:36:51;11.05;;;6.57;;
34459;SDS011;20704;51.260;22.558;2022-07-23T02:39:19;11.20;;;6.82;;
34459;SDS011;20704;51.260;22.558;2022-07-23T02:41:45;9.77;;;6.70;;
34459;SDS011;20704;51.260;22.558;2022-07-23T02:44:11;10.55;;;6.47;;
34459;SDS011;20704;51.260;22.558;2022-07-23T02:46:39;10.00;;;6.68;;
34459;SDS011;20704;51.260;22.558;2022-07-23T02:49:05;10.52;;;6.57;;
34459;SDS011;20704;51.260;22.558;2022-07-23T02:51:31;8.30;;;6.18;;
34459;SDS011;20704;51.260;22.558;2022-07-23T02:54:02;11.02;;;6.97;;
34459;SDS011;20704;51.260;22.558;2022-07-23T02:56:28;8.85;;;6.80;;
34459;SDS011;20704;51.260;22.558;2022-07-23T02:58:56;13.25;;;6.60;;
34459;SDS011;20704;51.260;22.558;2022-07-23T03:01:22;8.40;;;6.35;;
34459;SDS011;20704;51.260;22.558;2022-07-23T03:03:48;8.50;;;6.40;;
34459;SDS011;20704;51.260;22.558;2022-07-23T03:06:14;10.95;;;6.63;;
34459;SDS011;20704;51.260;22.558;2022-07-23T03:08:41;10.57;;;6.10;;
34459;SDS011;20704;51.260;22.558;2022-07-23T03:11:07;7.78;;;5.78;;
34459;SDS011;20704;51.260;22.558;2022-07-23T03:13:37;9.57;;;6.20;;
34459;SDS011;20704;51.260;22.558;2022-07-23T03:16:04;10.23;;;5.95;;
34459;SDS011;20704;51.260;22.558;2022-07-23T03:18:31;9.90;;;6.40;;
34459;SDS011;20704;51.260;22.558;2022-07-23T03:20:57;9.63;;;6.38;;
34459;SDS011;20704;51.260;22.558;2022-07-23T03:23:23;12.68;;;6.53;;
34459;SDS011;20704;51.260;22.558;2022-07-23T03:25:49;9.02;;;6.45;;
34459;SDS011;20704;51.260;22.558;2022-07-23T03:28:16;9.32;;;6.78;;
34459;SDS011;20704;51.260;22.558;2022-07-23T03:30:45;9.65;;;6.82;;
34459;SDS011;20704;51.260;22.558;2022-07-23T03:33:15;8.35;;;6.63;;
34459;SDS011;20704;51.260;22.558;2022-07-23T03:35:43;8.63;;;5.63;;
34459;SDS011;20704;51.260;22.558;2022-07-23T03:38:17;7.95;;;6.22;;
34459;SDS011;20704;51.260;22.558;2022-07-23T03:40:43;8.35;;;5.82;;
34459;SDS011;20704;51.260;22.558;2022-07-23T03:43:09;12.50;;;6.40;;
34459;SDS011;20704;51.260;22.558;2022-07-23T03:45:35;10.88;;;7.00;;
34459;SDS011;20704;51.260;22.558;2022-07-23T03:48:01;9.18;;;5.78;;
34459;SDS011;20704;51.260;22.558;2022-07-23T03:50:28;9.85;;;6.55;;
34459;SDS011;20704;51.260;22.558;2022-07-23T03:52:54;8.90;;;5.95;;
34459;SDS011;20704;51.260;22.558;2022-07-23T03:55:20;10.13;;;6.65;;
34459;SDS011;20704;51.260;22.558;2022-07-23T03:57:46;7.93;;;6.47;;
34459;SDS011;20704;51.260;22.558;2022-07-23T04:00:13;10.30;;;7.10;;
34459;SDS011;20704;51.260;22.558;2022-07-23T04:02:40;12.93;;;6.68;;
34459;SDS011;20704;51.260;22.558;2022-07-23T04:05:07;16.08;;;6.78;;
34459;SDS011;20704;51.260;22.558;2022-07-23T04:07:34;9.13;;;6.65;;
34459;SDS011;20704;51.260;22.558;2022-07-23T04:10:00;14.15;;;7.00;;
34459;SDS011;20704;51.260;22.558;2022-07-23T04:12:28;9.50;;;5.78;;
34459;SDS011;20704;51.260;22.558;2022-07-23T04:14:54;8.82;;;6.78;;
34459;SDS011;20704;51.260;22.558;2022-07-23T04:17:20;12.20;;;6.70;;
34459;SDS011;20704;51.260;22.558;2022-07-23T04:19:46;8.70;;;5.70;;
34459;SDS011;20704;51.260;22.558;2022-07-23T04:22:16;10.70;;;5.95;;
34459;SDS011;20704;51.260;22.558;2022-07-23T04:24:42;17.25;;;6.75;;
34459;SDS011;20704;51.260;22.558;2022-07-23T04:27:09;10.02;;;6.82;;
34459;SDS011;20704;51.260;22.558;2022-07-23T04:29:36;8.05;;;6.85;;
34459;SDS011;20704;51.260;22.558;2022-07-23T04:32:02;10.88;;;5.60;;
34459;SDS011;20704;51.260;22.558;2022-07-23T04:34:29;8.00;;;5.60;;
34459;SDS011;20704;51.260;22.558;2022-07-23T04:36:56;13.20;;;5.40;;
34459;SDS011;20704;51.260;22.558;2022-07-23T04:39:21;8.95;;;5.45;;
34459;SDS011;20704;51.260;22.558;2022-07-23T04:41:47;6.22;;;5.28;;
34459;SDS011;20704;51.260;22.558;2022-07-23T04:44:15;12.60;;;7.43;;
34459;SDS011;20704;51.260;22.558;2022-07-23T04:46:41;7.88;;;5.50;;
34459;SDS011;20704;51.260;22.558;2022-07-23T04:49:07;6.80;;;5.75;;
34459;SDS011;20704;51.260;22.558;2022-07-23T04:51:34;7.50;;;5.90;;
34459;SDS011;20704;51.260;22.558;2022-07-23T04:54:00;8.43;;;5.85;;
34459;SDS011;20704;51.260;22.558;2022-07-23T04:56:26;6.13;;;5.53;;
34459;SDS011;20704;51.260;22.558;2022-07-23T04:58:53;7.43;;;5.57;;
34459;SDS011;20704;51.260;22.558;2022-07-23T05:01:19;9.95;;;6.55;;
34459;SDS011;20704;51.260;22.558;2022-07-23T05:03:45;9.50;;;5.70;;
34459;SDS011;20704;51.260;22.558;2022-07-23T05:06:11;8.07;;;5.78;;
34459;SDS011;20704;51.260;22.558;2022-07-23T05:08:37;9.25;;;6.00;;
34459;SDS011;20704;51.260;22.558;2022-07-23T05:11:03;9.60;;;6.28;;
34459;SDS011;20704;51.260;22.558;2022-07-23T05:13:29;8.77;;;5.47;;
34459;SDS011;20704;51.260;22.558;2022-07-23T05:15:56;7.65;;;6.05;;
34459;SDS011;20704;51.260;22.558;2022-07-23T05:18:23;8.65;;;6.10;;
34459;SDS011;20704;51.260;22.558;2022-07-23T05:20:49;13.50;;;6.70;;
34459;SDS011;20704;51.260;22.558;2022-07-23T05:23:19;9.35;;;5.35;;
34459;SDS011;20704;51.260;22.558;2022-07-23T05:25:46;7.50;;;5.63;;
34459;SDS011;20704;51.260;22.558;2022-07-23T05:28:13;8.00;;;5.95;;
34459;SDS011;20704;51.260;22.558;2022-07-23T05:30:38;9.73;;;6.07;;
34459;SDS011;20704;51.260;22.558;2022-07-23T05:33:08;8.27;;;5.22;;
34459;SDS011;20704;51.260;22.558;2022-07-23T05:35:34;10.35;;;6.68;;
34459;SDS011;20704;51.260;22.558;2022-07-23T05:38:30;7.80;;;5.53;;
34459;SDS011;20704;51.260;22.558;2022-07-23T05:43:26;7.72;;;5.50;;
34459;SDS011;20704;51.260;22.558;2022-07-23T05:45:53;10.98;;;5.68;;
34459;SDS011;20704;51.260;22.558;2022-07-23T05:48:19;8.70;;;5.68;;
34459;SDS011;20704;51.260;22.558;2022-07-23T05:51:00;8.98;;;6.07;;
34459;SDS011;20704;51.260;22.558;2022-07-23T05:53:31;11.25;;;5.32;;
34459;SDS011;20704;51.260;22.558;2022-07-23T05:58:26;5.82;;;5.22;;
34459;SDS011;20704;51.260;22.558;2022-07-23T06:00:52;8.32;;;5.18;;
34459;SDS011;20704;51.260;22.558;2022-07-23T06:03:18;7.28;;;4.82;;
34459;SDS011;20704;51.260;22.558;2022-07-23T06:05:45;8.57;;;5.45;;
34459;SDS011;20704;51.260;22.558;2022-07-23T06:08:11;7.60;;;5.40;;
34459;SDS011;20704;51.260;22.558;2022-07-23T06:10:38;7.75;;;5.65;;
34459;SDS011;20704;51.260;22.558;2022-07-23T06:13:04;8.27;;;5.35;;
34459;SDS011;20704;51.260;22.558;2022-07-23T06:15:30;8.07;;;5.50;;
34459;SDS011;20704;51.260;22.558;2022-07-23T06:17:57;6.22;;;5.63;;
34459;SDS011;20704;51.260;22.558;2022-07-23T06:20:23;7.85;;;4.88;;
34459;SDS011;20704;51.260;22.558;2022-07-23T06:22:49;8.55;;;4.97;;
34459;SDS011;20704;51.260;22.558;2022-07-23T06:25:15;7.50;;;5.25;;
34459;SDS011;20704;51.260;22.558;2022-07-23T06:27:43;9.63;;;5.63;;
34459;SDS011;20704;51.260;22.558;2022-07-23T06:30:11;6.75;;;5.45;;
34459;SDS011;20704;51.260;22.558;2022-07-23T06:32:37;6.82;;;5.05;;
34459;SDS011;20704;51.260;22.558;2022-07-23T06:35:03;6.15;;;5.40;;
34459;SDS011;20704;51.260;22.558;2022-07-23T06:37:30;8.82;;;5.65;;
34459;SDS011;20704;51.260;22.558;2022-07-23T06:39:56;8.98;;;5.05;;
34459;SDS011;20704;51.260;22.558;2022-07-23T06:42:22;10.05;;;5.32;;
34459;SDS011;20704;51.260;22.558;2022-07-23T06:44:56;7.93;;;5.43;;
34459;SDS011;20704;51.260;22.558;2022-07-23T06:47:22;13.43;;;5.82;;
34459;SDS011;20704;51.260;22.558;2022-07-23T06:49:48;10.45;;;6.10;;
34459;SDS011;20704;51.260;22.558;2022-07-23T06:52:14;6.80;;;5.20;;
34459;SDS011;20704;51.260;22.558;2022-07-23T06:54:40;8.40;;;5.40;;
34459;SDS011;20704;51.260;22.558;2022-07-23T06:57:06;7.45;;;5.78;;
34459;SDS011;20704;51.260;22.558;2022-07-23T06:59:32;7.75;;;5.50;;
34459;SDS011;20704;51.260;22.558;2022-07-23T07:02:01;6.35;;;5.75;;
34459;SDS011;20704;51.260;22.558;2022-07-23T07:04:28;7.93;;;5.63;;
34459;SDS011;20704;51.260;22.558;2022-07-23T07:06:55;6.30;;;5.25;;
34459;SDS011;20704;51.260;22.558;2022-07-23T07:09:21;12.05;;;5.18;;
34459;SDS011;20704;51.260;22.558;2022-07-23T07:11:47;8.50;;;6.35;;
34459;SDS011;20704;51.260;22.558;2022-07-23T07:14:13;5.80;;;5.25;;
34459;SDS011;20704;51.260;22.558;2022-07-23T07:16:40;10.68;;;5.40;;
34459;SDS011;20704;51.260;22.558;2022-07-23T07:19:06;7.30;;;5.18;;
34459;SDS011;20704;51.260;22.558;2022-07-23T07:21:32;7.50;;;5.97;;
34459;SDS011;20704;51.260;22.558;2022-07-23T07:23:58;6.78;;;6.00;;
34459;SDS011;20704;51.260;22.558;2022-07-23T07:26:24;6.38;;;5.75;;
34459;SDS011;20704;51.260;22.558;2022-07-23T07:28:51;7.30;;;6.55;;
34459;SDS011;20704;51.260;22.558;2022-07-23T07:31:17;7.57;;;5.13;;
34459;SDS011;20704;51.260;22.558;2022-07-23T07:33:43;8.50;;;5.65;;
34459;SDS011;20704;51.260;22.558;2022-07-23T07:36:10;7.35;;;5.53;;
34459;SDS011;20704;51.260;22.558;2022-07-23T07:38:36;9.07;;;5.30;;
34459;SDS011;20704;51.260;22.558;2022-07-23T07:41:03;7.10;;;5.20;;
34459;SDS011;20704;51.260;22.558;2022-07-23T07:43:29;7.47;;;5.82;;
34459;SDS011;20704;51.260;22.558;2022-07-23T07:45:55;6.25;;;5.63;;
34459;SDS011;20704;51.260;22.558;2022-07-23T07:48:22;6.57;;;4.90;;
34459;SDS011;20704;51.260;22.558;2022-07-23T07:50:48;5.88;;;4.72;;
34459;SDS011;20704;51.260;22.558;2022-07-23T07:53:14;6.53;;;4.45;;
34459;SDS011;20704;51.260;22.558;2022-07-23T07:55:41;5.20;;;4.78;;
34459;SDS011;20704;51.260;22.558;2022-07-23T07:58:07;7.15;;;5.07;;
34459;SDS011;20704;51.260;22.558;2022-07-23T08:00:33;11.77;;;4.75;;
34459;SDS011;20704;51.260;22.558;2022-07-23T08:02:59;6.55;;;4.15;;
34459;SDS011;20704;51.260;22.558;2022-07-23T08:05:26;10.95;;;5.18;;
34459;SDS011;20704;51.260;22.558;2022-07-23T08:07:57;4.95;;;4.47;;
34459;SDS011;20704;51.260;22.558;2022-07-23T08:10:24;7.85;;;4.80;;
34459;SDS011;20704;51.260;22.558;2022-07-23T08:12:52;6.85;;;5.00;;
34459;SDS011;20704;51.260;22.558;2022-07-23T08:15:19;7.82;;;5.22;;
34459;SDS011;20704;51.260;22.558;2022-07-23T08:17:46;7.70;;;4.40;;
34459;SDS011;20704;51.260;22.558;2022-07-23T08:20:14;6.03;;;4.60;;
34459;SDS011;20704;51.260;22.558;2022-07-23T08:22:51;7.53;;;4.68;;
34459;SDS011;20704;51.260;22.558;2022-07-23T08:27:51;5.50;;;4.20;;
34459;SDS011;20704;51.260;22.558;2022-07-23T08:30:18;10.07;;;6.40;;
34459;SDS011;20704;51.260;22.558;2022-07-23T08:33:04;6.90;;;4.75;;
34459;SDS011;20704;51.260;22.558;2022-07-23T08:35:36;29.15;;;5.18;;
34459;SDS011;20704;51.260;22.558;2022-07-23T08:38:05;11.25;;;5.00;;
34459;SDS011;20704;51.260;22.558;2022-07-23T08:40:34;5.22;;;4.50;;
34459;SDS011;20704;51.260;22.558;2022-07-23T08:43:04;5.50;;;4.93;;
34459;SDS011;20704;51.260;22.558;2022-07-23T08:48:05;7.20;;;4.45;;
34459;SDS011;20704;51.260;22.558;2022-07-23T08:50:51;4.10;;;3.70;;
34459;SDS011;20704;51.260;22.558;2022-07-23T08:53:19;5.72;;;5.10;;
34459;SDS011;20704;51.260;22.558;2022-07-23T08:55:50;5.55;;;4.68;;
34459;SDS011;20704;51.260;22.558;2022-07-23T08:58:18;4.75;;;3.90;;
34459;SDS011;20704;51.260;22.558;2022-07-23T09:00:45;5.40;;;3.83;;
34459;SDS011;20704;51.260;22.558;2022-07-23T09:03:15;5.95;;;3.55;;
34459;SDS011;20704;51.260;22.558;2022-07-23T09:05:46;4.10;;;3.70;;
34459;SDS011;20704;51.260;22.558;2022-07-23T09:10:47;6.10;;;4.88;;
34459;SDS011;20704;51.260;22.558;2022-07-23T09:16:00;10.45;;;3.40;;
34459;SDS011;20704;51.260;22.558;2022-07-23T09:18:48;4.80;;;3.90;;
34459;SDS011;20704;51.260;22.558;2022-07-23T09:21:24;4.75;;;4.35;;
34459;SDS011;20704;51.260;22.558;2022-07-23T09:23:58;4.65;;;4.10;;
34459;SDS011;20704;51.260;22.558;2022-07-23T09:29:07;5.00;;;4.13;;
34459;SDS011;20704;51.260;22.558;2022-07-23T09:31:45;9.68;;;4.40;;
34459;SDS011;20704;51.260;22.558;2022-07-23T09:36:40;9.48;;;4.10;;
34459;SDS011;20704;51.260;22.558;2022-07-23T09:39:07;9.10;;;4.68;;
34459;SDS011;20704;51.260;22.558;2022-07-23T09:41:34;8.10;;;4.78;;
34459;SDS011;20704;51.260;22.558;2022-07-23T09:44:09;80.47;;;10.80;;
34459;SDS011;20704;51.260;22.558;2022-07-23T09:46:36;50.35;;;8.45;;
34459;SDS011;20704;51.260;22.558;2022-07-23T09:49:09;15.20;;;4.28;;
34459;SDS011;20704;51.260;22.558;2022-07-23T09:51:48;19.27;;;5.13;;
34459;SDS011;20704;51.260;22.558;2022-07-23T09:57:11;13.80;;;5.25;;
34459;SDS011;20704;51.260;22.558;2022-07-23T09:59:42;5.55;;;4.00;;
34459;SDS011;20704;51.260;22.558;2022-07-23T10:02:11;6.70;;;4.05;;
34459;SDS011;20704;51.260;22.558;2022-07-23T10:04:56;4.60;;;4.03;;
34459;SDS011;20704;51.260;22.558;2022-07-23T10:07:43;4.65;;;4.25;;
34459;SDS011;20704;51.260;22.558;2022-07-23T10:10:28;5.72;;;4.15;;
34459;SDS011;20704;51.260;22.558;2022-07-23T10:13:14;5.18;;;4.28;;
34459;SDS011;20704;51.260;22.558;2022-07-23T10:15:40;6.90;;;4.82;;
34459;SDS011;20704;51.260;22.558;2022-07-23T10:18:08;4.28;;;3.95;;
34459;SDS011;20704;51.260;22.558;2022-07-23T10:20:37;4.72;;;4.30;;
34459;SDS011;20704;51.260;22.558;2022-07-23T10:25:51;5.05;;;4.55;;
34459;SDS011;20704;51.260;22.558;2022-07-23T10:34:44;5.05;;;4.50;;
34459;SDS011;20704;51.260;22.558;2022-07-23T10:37:22;5.72;;;4.88;;
34459;SDS011;20704;51.260;22.558;2022-07-23T10:40:10;7.57;;;4.85;;
34459;SDS011;20704;51.260;22.558;2022-07-23T10:42:43;6.85;;;4.28;;
34459;SDS011;20704;51.260;22.558;2022-07-23T10:45:23;5.93;;;4.35;;
34459;SDS011;20704;51.260;22.558;2022-07-23T10:47:49;12.90;;;4.47;;
34459;SDS011;20704;51.260;22.558;2022-07-23T10:50:19;5.85;;;4.82;;
34459;SDS011;20704;51.260;22.558;2022-07-23T10:58:04;4.78;;;4.30;;
34459;SDS011;20704;51.260;22.558;2022-07-23T11:00:31;4.65;;;4.25;;
34459;SDS011;20704;51.260;22.558;2022-07-23T11:02:59;6.80;;;5.00;;
34459;SDS011;20704;51.260;22.558;2022-07-23T11:05:45;6.57;;;4.45;;
34459;SDS011;20704;51.260;22.558;2022-07-23T11:08:13;5.78;;;4.68;;
34459;SDS011;20704;51.260;22.558;2022-07-23T11:13:30;4.30;;;3.90;;
34459;SDS011;20704;51.260;22.558;2022-07-23T11:16:16;4.05;;;3.58;;
34459;SDS011;20704;51.260;22.558;2022-07-23T11:34:44;5.57;;;3.80;;
34459;SDS011;20704;51.260;22.558;2022-07-23T11:37:13;5.13;;;4.57;;
34459;SDS011;20704;51.260;22.558;2022-07-23T11:40:06;6.68;;;3.97;;
34459;SDS011;20704;51.260;22.558;2022-07-23T11:42:38;3.78;;;3.40;;
34459;SDS011;20704;51.260;22.558;2022-07-23T11:45:17;5.55;;;4.60;;
34459;SDS011;20704;51.260;22.558;2022-07-23T11:47:43;3.80;;;3.50;;
34459;SDS011;20704;51.260;22.558;2022-07-23T11:50:09;4.43;;;3.80;;
34459;SDS011;20704;51.260;22.558;2022-07-23T11:52:36;5.50;;;4.18;;
34459;SDS011;20704;51.260;22.558;2022-07-23T11:55:05;5.05;;;4.03;;
34459;SDS011;20704;51.260;22.558;2022-07-23T11:57:37;7.15;;;4.50;;
34459;SDS011;20704;51.260;22.558;2022-07-23T12:02:41;4.47;;;3.72;;
34459;SDS011;20704;51.260;22.558;2022-07-23T12:08:03;4.18;;;3.78;;
34459;SDS011;20704;51.260;22.558;2022-07-23T12:10:35;4.20;;;3.90;;
34459;SDS011;20704;51.260;22.558;2022-07-23T12:13:13;3.83;;;3.53;;
34459;SDS011;20704;51.260;22.558;2022-07-23T12:15:42;8.52;;;3.60;;
34459;SDS011;20704;51.260;22.558;2022-07-23T12:18:11;6.88;;;4.03;;
34459;SDS011;20704;51.260;22.558;2022-07-23T12:20:40;4.20;;;3.80;;
34459;SDS011;20704;51.260;22.558;2022-07-23T12:23:20;4.50;;;4.03;;
34459;SDS011;20704;51.260;22.558;2022-07-23T12:25:48;4.05;;;3.65;;
34459;SDS011;20704;51.260;22.558;2022-07-23T12:30:44;5.47;;;4.07;;
34459;SDS011;20704;51.260;22.558;2022-07-23T12:33:12;4.13;;;3.72;;
34459;SDS011;20704;51.260;22.558;2022-07-23T12:35:47;5.65;;;3.67;;
34459;SDS011;20704;51.260;22.558;2022-07-23T12:38:15;5.35;;;4.18;;
34459;SDS011;20704;51.260;22.558;2022-07-23T12:40:46;5.75;;;4.38;;
34459;SDS011;20704;51.260;22.558;2022-07-23T12:45:49;4.68;;;4.10;;
34459;SDS011;20704;51.260;22.558;2022-07-23T12:50:57;4.53;;;4.13;;
34459;SDS011;20704;51.260;22.558;2022-07-23T12:53:27;4.93;;;4.38;;
34459;SDS011;20704;51.260;22.558;2022-07-23T12:56:02;8.07;;;4.25;;
34459;SDS011;20704;51.260;22.558;2022-07-23T12:58:43;4.10;;;3.78;;
34459;SDS011;20704;51.260;22.558;2022-07-23T13:01:23;5.43;;;4.13;;
34459;SDS011;20704;51.260;22.558;2022-07-23T13:03:58;4.50;;;4.10;;
34459;SDS011;20704;51.260;22.558;2022-07-23T13:06:26;5.32;;;4.13;;
34459;SDS011;20704;51.260;22.558;2022-07-23T13:08:54;6.15;;;3.85;;
34459;SDS011;20704;51.260;22.558;2022-07-23T13:11:20;5.97;;;4.13;;
34459;SDS011;20704;51.260;22.558;2022-07-23T13:13:46;5.65;;;5.13;;
34459;SDS011;20704;51.260;22.558;2022-07-23T13:16:12;5.38;;;4.07;;
34459;SDS011;20704;51.260;22.558;2022-07-23T13:18:38;4.25;;;3.72;;
34459;SDS011;20704;51.260;22.558;2022-07-23T13:21:04;5.82;;;3.65;;
34459;SDS011;20704;51.260;22.558;2022-07-23T13:23:31;4.28;;;3.88;;
34459;SDS011;20704;51.260;22.558;2022-07-23T13:25:57;7.07;;;3.70;;
34459;SDS011;20704;51.260;22.558;2022-07-23T13:28:22;4.30;;;3.90;;
34459;SDS011;20704;51.260;22.558;2022-07-23T13:30:49;3.38;;;3.08;;
34459;SDS011;20704;51.260;22.558;2022-07-23T13:33:20;6.45;;;3.50;;
34459;SDS011;20704;51.260;22.558;2022-07-23T13:35:50;4.13;;;3.72;;
34459;SDS011;20704;51.260;22.558;2022-07-23T13:38:18;4.43;;;3.53;;
34459;SDS011;20704;51.260;22.558;2022-07-23T13:40:46;7.03;;;4.13;;
34459;SDS011;20704;51.260;22.558;2022-07-23T13:43:15;4.83;;;3.80;;
34459;SDS011;20704;51.260;22.558;2022-07-23T13:45:43;5.00;;;4.47;;
34459;SDS011;20704;51.260;22.558;2022-07-23T13:48:10;3.70;;;3.30;;
34459;SDS011;20704;51.260;22.558;2022-07-23T13:50:37;5.43;;;3.58;;
34459;SDS011;20704;51.260;22.558;2022-07-23T13:53:04;5.38;;;3.95;;
34459;SDS011;20704;51.260;22.558;2022-07-23T13:55:32;4.20;;;3.80;;
34459;SDS011;20704;51.260;22.558;2022-07-23T13:57:59;3.90;;;3.50;;
34459;SDS011;20704;51.260;22.558;2022-07-23T14:00:26;4.00;;;3.55;;
34459;SDS011;20704;51.260;22.558;2022-07-23T14:02:52;4.45;;;4.05;;
34459;SDS011;20704;51.260;22.558;2022-07-23T14:05:18;5.05;;;4.32;;
34459;SDS011;20704;51.260;22.558;2022-07-23T14:07:45;4.10;;;3.80;;
34459;SDS011;20704;51.260;22.558;2022-07-23T14:10:12;5.03;;;4.05;;
34459;SDS011;20704;51.260;22.558;2022-07-23T14:12:38;4.13;;;3.55;;
34459;SDS011;20704;51.260;22.558;2022-07-23T14:15:05;4.57;;;3.70;;
34459;SDS011;20704;51.260;22.558;2022-07-23T14:17:33;6.05;;;3.42;;
34459;SDS011;20704;51.260;22.558;2022-07-23T14:20:01;4.03;;;3.65;;
34459;SDS011;20704;51.260;22.558;2022-07-23T14:22:27;6.47;;;4.65;;
34459;SDS011;20704;51.260;22.558;2022-07-23T14:24:53;4.82;;;3.85;;
34459;SDS011;20704;51.260;22.558;2022-07-23T14:27:19;4.90;;;3.30;;
34459;SDS011;20704;51.260;22.558;2022-07-23T14:29:45;5.50;;;4.22;;
34459;SDS011;20704;51.260;22.558;2022-07-23T14:32:11;4.03;;;3.63;;
34459;SDS011;20704;51.260;22.558;2022-07-23T14:34:37;4.95;;;4.25;;
34459;SDS011;20704;51.260;22.558;2022-07-23T14:37:03;5.10;;;4.32;;
34459;SDS011;20704;51.260;22.558;2022-07-23T14:39:30;4.80;;;4.30;;
34459;SDS011;20704;51.260;22.558;2022-07-23T14:41:55;6.10;;;3.75;;
34459;SDS011;20704;51.260;22.558;2022-07-23T14:44:22;6.00;;;3.83;;
34459;SDS011;20704;51.260;22.558;2022-07-23T14:46:48;6.00;;;3.42;;
34459;SDS011;20704;51.260;22.558;2022-07-23T14:49:14;4.85;;;4.10;;
34459;SDS011;20704;51.260;22.558;2022-07-23T14:51:40;5.75;;;3.78;;
34459;SDS011;20704;51.260;22.558;2022-07-23T14:54:07;4.75;;;3.92;;
34459;SDS011;20704;51.260;22.558;2022-07-23T14:56:33;4.20;;;3.80;;
34459;SDS011;20704;51.260;22.558;2022-07-23T14:59:02;4.82;;;3.92;;
34459;SDS011;20704;51.260;22.558;2022-07-23T15:01:29;4.82;;;3.40;;
34459;SDS011;20704;51.260;22.558;2022-07-23T15:03:55;4.68;;;3.60;;
34459;SDS011;20704;51.260;22.558;2022-07-23T15:06:22;4.97;;;3.72;;
34459;SDS011;20704;51.260;22.558;2022-07-23T15:08:48;5.32;;;3.92;;
34459;SDS011;20704;51.260;22.558;2022-07-23T15:11:15;4.60;;;3.50;;
34459;SDS011;20704;51.260;22.558;2022-07-23T15:13:41;4.30;;;3.63;;
34459;SDS011;20704;51.260;22.558;2022-07-23T15:16:07;6.55;;;4.35;;
34459;SDS011;20704;51.260;22.558;2022-07-23T15:18:33;4.57;;;4.05;;
34459;SDS011;20704;51.260;22.558;2022-07-23T15:21:00;4.32;;;3.80;;
34459;SDS011;20704;51.260;22.558;2022-07-23T15:23:27;4.40;;;3.75;;
34459;SDS011;20704;51.260;22.558;2022-07-23T15:25:54;5.80;;;3.97;;
34459;SDS011;20704;51.260;22.558;2022-07-23T15:28:21;5.25;;;3.63;;
34459;SDS011;20704;51.260;22.558;2022-07-23T15:30:47;4.18;;;3.67;;
34459;SDS011;20704;51.260;22.558;2022-07-23T15:33:17;6.57;;;3.38;;
34459;SDS011;20704;51.260;22.558;2022-07-23T15:35:44;5.93;;;4.35;;
34459;SDS011;20704;51.260;22.558;2022-07-23T15:38:10;5.53;;;3.80;;
34459;SDS011;20704;51.260;22.558;2022-07-23T15:40:36;4.00;;;3.60;;
34459;SDS011;20704;51.260;22.558;2022-07-23T15:43:02;6.90;;;4.07;;
34459;SDS011;20704;51.260;22.558;2022-07-23T15:45:29;4.00;;;3.58;;
34459;SDS011;20704;51.260;22.558;2022-07-23T15:47:56;9.00;;;3.67;;